createdAt,value
2023-01-10T00:00:47.455Z,100276.66
2023-01-10T00:03:14.614Z,100281.44
2023-01-10T00:05:44.572Z,100291.13
2023-01-10T00:08:16.129Z,100286.19
2023-01-10T00:10:42.730Z,100287.13
2023-01-10T00:13:30.227Z,100288.81
2023-01-10T00:15:56.910Z,100285.22
2023-01-10T00:18:23.567Z,100287.97
2023-01-10T00:20:50.334Z,100288.84
2023-01-10T00:23:18.508Z,100293.91
2023-01-10T00:25:47.808Z,100296.38
2023-01-10T00:28:14.435Z,100295.19
2023-01-10T00:30:43.752Z,100293.75
2023-01-10T00:33:16.878Z,100296.03
2023-01-10T00:35:43.530Z,100288.69
2023-01-10T00:38:22.694Z,100304.25
2023-01-10T00:40:49.404Z,100303.09
2023-01-10T00:43:20.601Z,100299.69
2023-01-10T00:45:50.341Z,100305.38
2023-01-10T00:48:17.311Z,100309.16
2023-01-10T00:50:46.255Z,100308.03
2023-01-10T00:53:16.300Z,100312.59
2023-01-10T00:55:46.626Z,100313.25
2023-01-10T00:58:16.253Z,100309.16
2023-01-10T01:00:43.861Z,100317.81
2023-01-10T01:03:13.903Z,100313.75
2023-01-10T01:05:47.218Z,100322.75
2023-01-10T01:08:17.911Z,100322.41
2023-01-10T01:10:44.849Z,100326.50
2023-01-10T01:13:17.957Z,100324.63
2023-01-10T01:15:52.467Z,100330.69
2023-01-10T01:18:21.639Z,100335.78
2023-01-10T01:20:52.535Z,100335.66
2023-01-10T01:23:19.198Z,100347.56
2023-01-10T01:25:48.053Z,100351.47
2023-01-10T01:28:15.787Z,100351.28
2023-01-10T01:30:42.482Z,100356.13
2023-01-10T01:33:09.078Z,100358.22
2023-01-10T01:35:36.077Z,100362.72
2023-01-10T01:38:02.847Z,100361.41
2023-01-10T01:40:29.829Z,100363.19
2023-01-10T01:43:04.353Z,100361.69
2023-01-10T01:45:43.013Z,100368.13
2023-01-10T01:48:21.189Z,100367.53
2023-01-10T01:51:14.245Z,100367.72
2023-01-10T01:53:49.045Z,100372.69
2023-01-10T01:56:42.706Z,100385.03
2023-01-10T01:59:16.044Z,100385.91
2023-01-10T02:01:58.257Z,100390.38
2023-01-10T02:04:29.041Z,100393.38
2023-01-10T02:06:57.388Z,100384.03
2023-01-10T02:10:03.353Z,100384.88
2023-01-10T02:12:32.136Z,100377.00
2023-01-10T02:14:59.728Z,100393.22
2023-01-10T02:17:26.320Z,100390.28
2023-01-10T02:20:10.347Z,100393.13
2023-01-10T02:22:55.155Z,100396.31
2023-01-10T02:25:39.820Z,100396.16
2023-01-10T02:28:36.736Z,100400.28
2023-01-10T02:31:27.951Z,100394.03
2023-01-10T02:34:03.824Z,100405.19
2023-01-10T02:36:57.349Z,100411.75
2023-01-10T02:39:32.835Z,100407.50
2023-01-10T02:42:13.600Z,100408.16
2023-01-10T02:45:25.896Z,100412.06
2023-01-10T02:47:54.732Z,100407.00
2023-01-10T02:50:38.823Z,100406.81
2023-01-10T02:53:11.220Z,100414.16
2023-01-10T02:56:00.880Z,100421.88
2023-01-10T02:58:59.723Z,100427.25
2023-01-10T03:01:34.987Z,100427.09
2023-01-10T03:04:29.634Z,100435.53
2023-01-10T03:07:27.841Z,100440.22
2023-01-10T03:09:56.707Z,100446.00
2023-01-10T03:13:15.690Z,100441.22
2023-01-10T03:15:50.761Z,100455.41
2023-01-10T03:18:23.608Z,100447.75
2023-01-10T03:20:55.793Z,100447.63
2023-01-10T03:23:28.928Z,100453.03
2023-01-10T03:25:57.748Z,100455.16
2023-01-10T03:28:50.108Z,100447.63
2023-01-10T03:31:18.861Z,100473.72
2023-01-10T03:33:45.730Z,100469.78
2023-01-10T03:36:29.123Z,100460.44
2023-01-10T03:39:02.571Z,100475.88
2023-01-10T03:41:41.488Z,100476.84
2023-01-10T03:44:38.951Z,100478.50
2023-01-10T03:47:13.724Z,100473.38
2023-01-10T03:49:44.284Z,100473.88
2023-01-10T03:52:19.897Z,100473.69
2023-01-10T03:54:47.673Z,100488.81
2023-01-10T03:57:23.002Z,100491.09
2023-01-10T03:59:55.641Z,100494.22
2023-01-10T04:02:22.238Z,100501.44
2023-01-10T04:04:56.478Z,100504.06
2023-01-10T04:07:23.997Z,100510.81
2023-01-10T04:09:53.155Z,100516.72
2023-01-10T04:12:21.784Z,100517.03
2023-01-10T04:14:48.502Z,100520.97
2023-01-10T04:17:18.726Z,100521.31
2023-01-10T04:19:45.507Z,100526.72
2023-01-10T04:22:15.612Z,100524.56
2023-01-10T04:24:42.233Z,100529.47
2023-01-10T04:27:11.178Z,100528.50
2023-01-10T04:29:38.931Z,100530.00
2023-01-10T04:32:11.655Z,100535.41
2023-01-10T04:34:38.380Z,100540.19
2023-01-10T04:37:06.417Z,100541.97
2023-01-10T04:39:33.492Z,100547.72
2023-01-10T04:42:00.166Z,100548.66
2023-01-10T04:44:26.810Z,100539.47
2023-01-10T04:46:53.498Z,100550.66
2023-01-10T04:49:20.309Z,100558.50
2023-01-10T04:51:47.817Z,100565.69
2023-01-10T04:54:20.641Z,100562.59
2023-01-10T04:56:49.756Z,100576.03
2023-01-10T04:59:16.575Z,100579.19
2023-01-10T05:01:45.189Z,100578.13
2023-01-10T05:04:11.939Z,100586.88
2023-01-10T05:06:41.756Z,100594.78
2023-01-10T05:09:14.249Z,100597.75
2023-01-10T05:11:40.999Z,100607.78
2023-01-10T05:14:07.737Z,100603.50
2023-01-10T05:16:34.399Z,100611.69
2023-01-10T05:19:02.242Z,100621.56
2023-01-10T05:21:28.833Z,100625.19
2023-01-10T05:23:55.487Z,100626.81
2023-01-10T05:26:26.055Z,100634.38
2023-01-10T05:28:55.755Z,100643.22
2023-01-10T05:31:22.478Z,100646.03
2023-01-10T05:33:56.065Z,100651.81
2023-01-10T05:36:22.673Z,100654.25
2023-01-10T05:38:49.316Z,100659.69
2023-01-10T05:41:16.035Z,100663.63
2023-01-10T05:43:42.703Z,100665.78
2023-01-10T05:46:09.899Z,100679.22
2023-01-10T05:48:39.366Z,100679.69
2023-01-10T05:51:06.331Z,100681.66
2023-01-10T05:53:34.612Z,100696.28
2023-01-10T05:56:02.641Z,100697.25
2023-01-10T05:58:29.703Z,100705.19
2023-01-10T06:00:59.242Z,100703.69
2023-01-10T06:03:33.809Z,100722.72
2023-01-10T06:06:02.925Z,100719.63
2023-01-10T06:08:29.815Z,100727.00
2023-01-10T06:10:56.421Z,100735.38
2023-01-10T06:13:23.683Z,100724.72
2023-01-10T06:15:50.731Z,100734.56
2023-01-10T06:18:17.411Z,100740.97
2023-01-10T06:20:44.698Z,100740.81
2023-01-10T06:23:15.607Z,100755.75
2023-01-10T06:25:44.812Z,100752.16
2023-01-10T06:28:15.857Z,100758.88
2023-01-10T06:30:45.708Z,100752.97
2023-01-10T06:33:12.408Z,100763.97
2023-01-10T06:35:46.352Z,100772.69
2023-01-10T06:38:16.476Z,100790.75
2023-01-10T06:40:43.663Z,100780.75
2023-01-10T06:43:10.288Z,100796.97
2023-01-10T06:45:36.971Z,100799.78
2023-01-10T06:48:05.629Z,100809.91
2023-01-10T06:50:32.196Z,100813.06
2023-01-10T06:53:01.049Z,100815.72
2023-01-10T06:55:31.480Z,100829.53
2023-01-10T06:58:02.417Z,100830.66
2023-01-10T07:00:30.534Z,100832.53
2023-01-10T07:03:01.251Z,100840.41
2023-01-10T07:05:28.149Z,100840.69
2023-01-10T07:16:08.086Z,100863.72
2023-01-10T07:18:35.819Z,100869.03
2023-01-10T07:21:05.060Z,100862.31
2023-01-10T07:23:34.886Z,100877.22
2023-01-10T07:26:06.724Z,100886.28
2023-01-10T07:28:34.090Z,100894.75
2023-01-10T07:31:08.054Z,100900.53
2023-01-10T07:33:34.680Z,100909.19
2023-01-10T07:36:01.968Z,100905.06
2023-01-10T07:38:29.100Z,100908.88
2023-01-10T07:40:55.647Z,100906.63
2023-01-10T07:43:22.286Z,100910.97
2023-01-10T07:45:48.950Z,100917.19
2023-01-10T07:48:15.543Z,100921.81
2023-01-10T07:50:42.097Z,100915.16
2023-01-10T07:53:11.640Z,100924.34
2023-01-10T07:55:38.191Z,100929.59
2023-01-10T07:58:07.636Z,100927.63
2023-01-10T08:00:40.186Z,100929.63
2023-01-10T08:03:07.101Z,100933.25
2023-01-10T08:05:33.871Z,100936.22
2023-01-10T08:08:08.024Z,100943.97
2023-01-10T08:10:41.055Z,100951.91
2023-01-10T08:13:18.323Z,100946.41
2023-01-10T08:15:48.330Z,100953.00
2023-01-10T08:18:15.053Z,100961.41
2023-01-10T08:20:41.822Z,100958.31
2023-01-10T08:23:08.701Z,100962.06
2023-01-10T08:25:35.535Z,100970.00
2023-01-10T08:28:02.827Z,100977.22
2023-01-10T08:30:29.493Z,100985.47
2023-01-10T08:32:56.181Z,100986.94
2023-01-10T08:35:22.924Z,100995.66
2023-01-10T08:37:49.577Z,101003.09
2023-01-10T08:40:18.778Z,101008.56
2023-01-10T08:42:52.415Z,101004.94
2023-01-10T08:45:19.216Z,101018.25
2023-01-10T08:47:48.368Z,101010.81
2023-01-10T08:50:27.453Z,101014.13
2023-01-10T08:52:54.036Z,101015.94
2023-01-10T08:55:28.674Z,101006.06
2023-01-10T08:57:55.349Z,101027.28
2023-01-10T09:00:30.229Z,101021.19
2023-01-10T09:02:57.396Z,101035.19
2023-01-10T09:05:28.423Z,101037.00
2023-01-10T09:08:00.327Z,101041.31
2023-01-10T09:10:30.344Z,101040.63
2023-01-10T09:13:00.342Z,101068.41
2023-01-10T09:15:35.618Z,101063.03
2023-01-10T09:18:04.293Z,101069.94
2023-01-10T09:20:31.291Z,101083.13
2023-01-10T09:22:57.903Z,101066.13
2023-01-10T09:25:27.711Z,101080.00
2023-01-10T09:28:01.780Z,101099.78
2023-01-10T09:30:32.175Z,101096.47
2023-01-10T09:33:01.526Z,101093.16
2023-01-10T09:35:30.803Z,101107.50
2023-01-10T09:37:59.664Z,101110.63
2023-01-10T09:41:06.077Z,101112.13
2023-01-10T09:44:01.094Z,101115.38
2023-01-10T09:55:43.564Z,101133.69
2023-01-10T09:58:16.058Z,101143.41
2023-01-10T10:01:01.174Z,101135.28
2023-01-10T10:03:57.813Z,101140.97
2023-01-10T10:06:24.913Z,101153.09
2023-01-10T10:08:52.565Z,101166.78
2023-01-10T10:11:29.918Z,101158.84
2023-01-10T10:14:06.796Z,101159.84
2023-01-10T10:16:59.555Z,101160.13
2023-01-10T10:19:44.198Z,101147.09
2023-01-10T10:22:29.747Z,101152.56
2023-01-10T10:25:11.330Z,101164.69
2023-01-10T10:27:47.644Z,101162.72
2023-01-10T10:30:42.497Z,101170.69
2023-01-10T10:33:26.263Z,101157.19
2023-01-10T10:36:23.212Z,101169.84
2023-01-10T10:38:54.645Z,101162.16
2023-01-10T10:41:29.917Z,101163.84
2023-01-10T10:44:00.903Z,101180.16
2023-01-10T10:46:32.016Z,101169.44
2023-01-10T10:49:32.319Z,101181.97
2023-01-10T10:52:03.743Z,101179.44
2023-01-10T10:54:36.695Z,101191.38
2023-01-10T10:57:05.592Z,101195.50
2023-01-10T10:59:32.944Z,101190.50
2023-01-10T11:02:00.520Z,101194.59
2023-01-10T11:04:28.340Z,101190.38
2023-01-10T11:06:58.471Z,101191.38
2023-01-10T11:09:31.140Z,101179.28
2023-01-10T11:12:04.873Z,101185.22
2023-01-10T11:14:51.686Z,101185.66
2023-01-10T11:17:34.641Z,101191.97
2023-01-10T11:20:04.320Z,101189.31
2023-01-10T11:22:53.467Z,101192.78
2023-01-10T11:25:22.944Z,101197.25
2023-01-10T11:27:59.559Z,101193.56
2023-01-10T11:30:30.300Z,101200.47
2023-01-10T11:33:08.195Z,101193.91
2023-01-10T11:35:37.907Z,101194.22
2023-01-10T11:38:20.514Z,101195.81
2023-01-10T11:41:19.587Z,101196.09
2023-01-10T11:43:46.127Z,101199.78
2023-01-10T11:46:24.883Z,101183.91
2023-01-10T11:49:12.781Z,101190.03
2023-01-10T11:52:14.537Z,101189.19
2023-01-10T11:54:48.019Z,101186.88
2023-01-10T11:57:30.466Z,101186.13
2023-01-10T12:00:01.995Z,101188.78
2023-01-10T12:02:35.614Z,101190.41
2023-01-10T12:05:06.623Z,101193.22
2023-01-10T12:08:00.663Z,101159.69
2023-01-10T12:10:28.929Z,101182.13
2023-01-10T12:12:57.938Z,101182.44
2023-01-10T12:15:30.037Z,101206.34
2023-01-10T12:17:57.941Z,101230.44
2023-01-10T12:20:28.351Z,101228.28
2023-01-10T12:22:59.387Z,101234.00
2023-01-10T12:25:38.367Z,101211.34
2023-01-10T12:28:20.079Z,101212.81
2023-01-10T12:30:48.820Z,101217.03
2023-01-10T12:33:30.564Z,101212.97
2023-01-10T12:36:03.405Z,101221.94
2023-01-10T12:41:36.537Z,101210.22
2023-01-10T12:44:11.985Z,101219.13
2023-01-10T12:47:23.575Z,101219.34
2023-01-10T12:50:02.611Z,101215.53
2023-01-10T12:52:42.151Z,101230.91
2023-01-10T12:55:13.999Z,101212.84
2023-01-10T12:57:47.030Z,101221.50
2023-01-10T13:00:53.639Z,101225.31
2023-01-10T13:03:22.881Z,101223.69
2023-01-10T13:05:50.105Z,101228.34
2023-01-10T13:08:23.281Z,101229.38
2023-01-10T13:10:52.971Z,101231.38
2023-01-10T13:13:42.787Z,101225.50
2023-01-10T13:16:47.059Z,101218.75
2023-01-10T13:19:13.573Z,101227.97
2023-01-10T13:21:42.256Z,101229.16
2023-01-10T13:24:15.012Z,101237.81
2023-01-10T13:26:57.117Z,101237.31
2023-01-10T13:29:30.896Z,101240.28
2023-01-10T13:32:02.550Z,101240.34
2023-01-10T13:34:39.303Z,101245.72
2023-01-10T13:37:13.000Z,101251.31
2023-01-10T13:39:53.109Z,101252.84
2023-01-10T13:42:39.869Z,101253.78
2023-01-10T13:45:06.341Z,101257.88
2023-01-10T13:47:40.118Z,101257.53
2023-01-10T13:50:32.437Z,101273.75
2023-01-10T13:53:01.882Z,101269.16
2023-01-10T13:55:40.449Z,101266.88
2023-01-10T13:58:15.994Z,101271.41
2023-01-10T14:00:55.160Z,101270.94
2023-01-10T14:04:00.659Z,101271.63
2023-01-10T14:06:30.158Z,101264.53
2023-01-10T14:09:02.096Z,101274.28
2023-01-10T14:11:43.931Z,101269.53
2023-01-10T14:14:25.934Z,101278.25
2023-01-10T14:16:58.137Z,101280.28
2023-01-10T14:19:32.729Z,101287.78
2023-01-10T14:22:03.527Z,101288.22
2023-01-10T14:24:42.446Z,101287.56
2023-01-10T14:27:17.622Z,101292.78
2023-01-10T14:29:59.412Z,101289.16
2023-01-10T14:32:32.025Z,101301.72
2023-01-10T14:35:02.433Z,101300.91
2023-01-10T14:37:43.862Z,101302.25
2023-01-10T14:40:43.278Z,101306.59
2023-01-10T14:43:16.040Z,101305.34
2023-01-10T14:45:52.886Z,101303.25
2023-01-10T14:48:34.713Z,101302.44
2023-01-10T14:51:21.587Z,101291.28
2023-01-10T14:53:58.861Z,101293.91
2023-01-10T14:56:28.967Z,101300.31
2023-01-10T14:58:55.581Z,101301.56
2023-01-10T15:01:34.124Z,101297.09
2023-01-10T15:04:00.842Z,101303.41
2023-01-10T15:06:27.448Z,101304.25
2023-01-10T15:08:58.158Z,101313.97
2023-01-10T15:11:27.314Z,101310.34
2023-01-10T15:13:59.916Z,101308.44
2023-01-10T15:16:30.301Z,101310.56
2023-01-10T15:18:57.241Z,101312.06
2023-01-10T15:21:24.308Z,101306.34
2023-01-10T15:23:51.006Z,101310.66
2023-01-10T15:26:26.826Z,101323.09
2023-01-10T15:29:10.941Z,101322.63
2023-01-10T15:31:41.173Z,101317.34
2023-01-10T15:34:20.759Z,101317.31
2023-01-10T15:36:56.836Z,101316.53
2023-01-10T15:39:28.452Z,101318.69
2023-01-10T15:42:02.903Z,101317.72
2023-01-10T15:44:48.838Z,101323.72
2023-01-10T15:47:42.493Z,101319.25
2023-01-10T15:50:19.064Z,101318.09
2023-01-10T15:53:02.060Z,101327.03
2023-01-10T15:55:39.706Z,101319.41
2023-01-10T15:58:32.705Z,101326.34
2023-01-10T16:01:00.507Z,101331.78
2023-01-10T16:03:44.553Z,101341.19
2023-01-10T16:06:42.743Z,101339.53
2023-01-10T16:09:19.970Z,101340.69
2023-01-10T16:11:48.771Z,101351.25
2023-01-10T16:14:15.411Z,101355.91
2023-01-10T16:16:42.035Z,101354.91
2023-01-10T16:19:08.831Z,101358.00
2023-01-10T16:21:43.334Z,101359.66
2023-01-10T16:24:31.190Z,101353.06
2023-01-10T16:27:00.693Z,101352.06
2023-01-10T16:29:27.909Z,101359.28
2023-01-10T16:31:54.721Z,101364.56
2023-01-10T16:34:24.690Z,101366.72
2023-01-10T16:36:51.586Z,101368.19
2023-01-10T16:39:20.803Z,101368.34
2023-01-10T16:41:47.629Z,101378.72
2023-01-10T16:44:14.332Z,101374.97
2023-01-10T16:46:40.982Z,101385.28
2023-01-10T16:49:07.537Z,101387.25
2023-01-10T16:51:38.281Z,101383.97
2023-01-10T16:54:04.996Z,101388.66
2023-01-10T16:56:37.549Z,101400.00
2023-01-10T16:59:06.193Z,101396.53
2023-01-10T17:01:38.904Z,101391.00
2023-01-10T17:04:12.117Z,101391.69
2023-01-10T17:06:38.856Z,101404.50
2023-01-10T17:09:05.589Z,101397.81
2023-01-10T17:11:42.783Z,101400.66
2023-01-10T17:14:17.443Z,101394.88
2023-01-10T17:16:44.190Z,101403.19
2023-01-10T17:19:10.823Z,101403.34
2023-01-10T17:21:40.522Z,101394.47
2023-01-10T17:24:09.505Z,101403.06
2023-01-10T17:26:37.937Z,101399.09
2023-01-10T17:29:05.427Z,101397.75
2023-01-10T17:31:32.070Z,101410.97
2023-01-10T17:33:58.735Z,101399.47
2023-01-10T17:36:28.516Z,101420.38
2023-01-10T17:38:56.190Z,101421.63
2023-01-10T17:41:26.014Z,101411.28
2023-01-10T17:43:53.551Z,101423.34
2023-01-10T17:46:22.890Z,101432.06
2023-01-10T17:48:52.307Z,101416.97
2023-01-10T17:51:19.013Z,101431.28
2023-01-10T17:53:45.589Z,101436.31
2023-01-10T17:56:12.236Z,101431.53
2023-01-10T17:58:38.863Z,101438.34
2023-01-10T18:01:24.813Z,101439.63
2023-01-10T18:03:52.519Z,101448.31
2023-01-10T18:06:39.585Z,101445.59
2023-01-10T18:09:06.161Z,101452.31
2023-01-10T18:11:32.876Z,101450.84
2023-01-10T18:14:05.974Z,101449.38
2023-01-10T18:16:33.316Z,101460.53
2023-01-10T18:18:59.974Z,101458.22
2023-01-10T18:21:29.493Z,101458.09
2023-01-10T18:23:56.103Z,101449.66
2023-01-10T18:26:22.943Z,101455.88
2023-01-10T18:28:49.502Z,101457.16
2023-01-10T18:31:18.570Z,101458.63
2023-01-10T18:33:46.535Z,101456.66
2023-01-10T18:36:18.894Z,101456.00
2023-01-10T18:38:45.850Z,101460.81
2023-01-10T18:41:13.568Z,101461.31
2023-01-10T18:43:40.277Z,101456.97
2023-01-10T18:46:13.165Z,101454.31
2023-01-10T18:48:40.325Z,101458.94
2023-01-10T18:51:07.031Z,101460.75
2023-01-10T18:53:33.559Z,101457.97
2023-01-10T18:56:02.266Z,101464.28
2023-01-10T18:58:32.613Z,101467.94
2023-01-10T19:01:08.208Z,101465.41
2023-01-10T19:03:38.732Z,101456.50
2023-01-10T19:06:07.204Z,101461.03
2023-01-10T19:08:35.425Z,101461.69
2023-01-10T19:11:13.875Z,101467.59
2023-01-10T19:13:41.959Z,101466.22
2023-01-10T19:16:11.564Z,101467.59
2023-01-10T19:18:38.884Z,101463.84
2023-01-10T19:21:09.239Z,101461.84
2023-01-10T19:23:35.870Z,101468.88
2023-01-10T19:26:02.480Z,101472.44
2023-01-10T19:28:29.610Z,101476.25
2023-01-10T19:31:04.656Z,101476.66
2023-01-10T19:33:32.530Z,101480.13
2023-01-10T19:35:59.150Z,101482.56
2023-01-10T19:38:25.854Z,101491.44
2023-01-10T19:40:53.130Z,101486.91
2023-01-10T19:43:19.920Z,101483.06
2023-01-10T19:45:48.850Z,101483.06
2023-01-10T19:48:21.492Z,101501.34
2023-01-10T19:50:50.877Z,101499.03
2023-01-10T19:53:19.084Z,101502.84
2023-01-10T19:55:46.120Z,101504.81
2023-01-10T19:58:12.795Z,101509.41
2023-01-10T20:00:44.644Z,101503.47
2023-01-10T20:03:14.130Z,101510.72
2023-01-10T20:05:40.774Z,101509.81
2023-01-10T20:08:07.408Z,101519.34
2023-01-10T20:10:39.450Z,101515.06
2023-01-10T20:13:05.911Z,101515.75
2023-01-10T20:15:36.038Z,101514.56
2023-01-10T20:18:03.074Z,101520.03
2023-01-10T20:20:29.882Z,101523.13
2023-01-10T20:23:02.818Z,101518.88
2023-01-10T20:25:29.592Z,101527.81
2023-01-10T20:28:00.138Z,101528.91
2023-01-10T20:30:26.823Z,101531.97
2023-01-10T20:32:55.670Z,101539.13
2023-01-10T20:35:26.310Z,101543.06
2023-01-10T20:37:55.974Z,101532.66
2023-01-10T20:40:22.735Z,101533.78
2023-01-10T20:42:51.665Z,101531.69
2023-01-10T20:45:32.847Z,101535.44
2023-01-10T20:48:02.639Z,101536.00
2023-01-10T20:50:32.484Z,101542.91
2023-01-10T20:53:00.326Z,101542.31
2023-01-10T20:55:33.669Z,101542.78
2023-01-10T20:58:00.433Z,101535.09
2023-01-10T21:03:23.155Z,101532.16
2023-01-10T21:05:51.468Z,101529.38
2023-01-10T21:08:28.283Z,101527.88
2023-01-10T21:11:01.526Z,101527.66
2023-01-10T21:13:28.290Z,101525.59
2023-01-10T21:15:57.336Z,101524.69
2023-01-10T21:18:31.663Z,101523.28
2023-01-10T21:21:01.401Z,101527.63
2023-01-10T21:23:28.873Z,101518.47
2023-01-10T21:26:06.296Z,101527.19
2023-01-10T21:28:38.225Z,101516.72
2023-01-10T21:31:17.948Z,101520.34
2023-01-10T21:33:45.305Z,101525.50
2023-01-10T21:36:12.299Z,101526.00
2023-01-10T21:38:48.232Z,101526.28
2023-01-10T21:41:18.911Z,101529.28
2023-01-10T21:43:45.479Z,101527.34
2023-01-10T21:46:12.171Z,101534.91
2023-01-10T21:48:41.459Z,101531.22
2023-01-10T21:51:08.021Z,101537.44
2023-01-10T21:53:34.652Z,101533.41
2023-01-10T21:56:01.554Z,101540.59
2023-01-10T21:58:28.150Z,101541.91
2023-01-10T22:00:58.978Z,101544.53
2023-01-10T22:03:29.827Z,101535.69
2023-01-10T22:05:56.595Z,101539.69
2023-01-10T22:08:26.159Z,101535.63
2023-01-10T22:10:52.705Z,101547.91
2023-01-10T22:13:19.317Z,101536.00
2023-01-10T22:15:45.857Z,101533.88
2023-01-10T22:18:12.418Z,101544.59
2023-01-10T22:20:39.020Z,101539.91
2023-01-10T22:23:05.662Z,101547.41
2023-01-10T22:25:32.215Z,101545.66
2023-01-10T22:27:58.805Z,101545.28
2023-01-10T22:30:25.352Z,101550.97
2023-01-10T22:32:55.582Z,101551.88
2023-01-10T22:35:27.989Z,101547.44
2023-01-10T22:37:55.640Z,101556.38
2023-01-10T22:40:22.872Z,101565.66
2023-01-10T22:42:50.640Z,101557.53
2023-01-10T22:45:17.282Z,101557.47
2023-01-10T22:47:43.943Z,101552.28
2023-01-10T22:50:10.705Z,101542.91
2023-01-10T22:52:37.284Z,101552.16
2023-01-10T22:55:04.134Z,101551.91
2023-01-10T22:57:32.979Z,101549.88
2023-01-10T23:00:02.244Z,101546.81
2023-01-10T23:02:32.094Z,101549.63
2023-01-10T23:05:04.422Z,101539.59
2023-01-10T23:07:31.360Z,101535.66
2023-01-10T23:10:00.577Z,101546.28
2023-01-10T23:12:27.289Z,101551.31
2023-01-10T23:14:58.188Z,101552.25
2023-01-10T23:17:24.738Z,101551.66
2023-01-10T23:19:51.281Z,101552.78
2023-01-10T23:22:17.809Z,101555.97
2023-01-10T23:24:44.353Z,101555.44
2023-01-10T23:27:18.515Z,101556.88
2023-01-10T23:29:45.071Z,101555.56
2023-01-10T23:32:11.659Z,101556.28
2023-01-10T23:34:41.075Z,101554.00
2023-01-10T23:37:07.615Z,101553.53
2023-01-10T23:39:36.978Z,101554.81
2023-01-10T23:42:03.660Z,101562.03
2023-01-10T23:44:30.193Z,101555.59
2023-01-10T23:46:57.124Z,101552.97
2023-01-10T23:49:28.051Z,101549.53
2023-01-10T23:51:54.555Z,101547.63
2023-01-10T23:54:21.380Z,101560.63
2023-01-10T23:56:53.659Z,101552.78
2023-01-10T23:59:20.926Z,101543.28
